PUA1502 SAZM-SULS
Flight info
| Callsign | PUA1502 |
|---|---|
| Flight time | 0h 45m |
| Altitude | 29000 |
| Route | ROPIS1G ROPIS UM792 DARKA |
| Aircraft | A320/M-SDE3FGHIRWY/LB1 |
Departure
| Time | 2026-04-26 19:12 |
|---|---|
| Airport | Ástor Piazzola International Airport (SAZM) |
Arrival
| Time | 2026-04-26 19:57 |
|---|---|
| Airport | Capitan Corbeta CA Curbelo International Airport (SULS) |
| Time | Latitude | Longitude | Altitude | Speed | Heading |
|---|---|---|---|---|---|
| 2026-04-26 18:32 | -37.93331 | -57.58072 | 54 ft | 0 kts | 334° |
| 2026-04-26 18:34 | -37.93331 | -57.58071 | 53 ft | 0 kts | 334° |
| 2026-04-26 18:45 | -37.93332 | -57.58071 | 53 ft | 0 kts | 334° |
| 2026-04-26 19:02 | -37.93352 | -57.58055 | 52 ft | 7 kts | 308° |
| 2026-04-26 19:02 | -37.93353 | -57.58054 | 52 ft | 17 kts | 307° |
| 2026-04-26 19:03 | -37.93358 | -57.58045 | 53 ft | 2 kts | 308° |
| 2026-04-26 19:04 | -37.93368 | -57.58033 | 50 ft | 2 kts | 340° |
| 2026-04-26 19:04 | -37.93381 | -57.58031 | 51 ft | 0 kts | 12° |
| 2026-04-26 19:05 | -37.93380 | -57.58030 | 51 ft | 1 kts | 14° |
| 2026-04-26 19:06 | -37.93375 | -57.58022 | 49 ft | 2 kts | 51° |
| 2026-04-26 19:06 | -37.93378 | -57.57995 | 51 ft | 4 kts | 110° |
| 2026-04-26 19:06 | -37.93389 | -57.57963 | 54 ft | 6 kts | 114° |
| 2026-04-26 19:06 | -37.93419 | -57.57886 | 53 ft | 12 kts | 118° |
| 2026-04-26 19:07 | -37.93457 | -57.57801 | 53 ft | 11 kts | 119° |
| 2026-04-26 19:07 | -37.93498 | -57.57711 | 53 ft | 13 kts | 121° |
| 2026-04-26 19:07 | -37.93546 | -57.57603 | 52 ft | 15 kts | 118° |
| 2026-04-26 19:07 | -37.93596 | -57.57488 | 53 ft | 14 kts | 119° |
| 2026-04-26 19:08 | -37.93644 | -57.57380 | 51 ft | 14 kts | 120° |
| 2026-04-26 19:08 | -37.93693 | -57.57273 | 51 ft | 14 kts | 118° |
| 2026-04-26 19:08 | -37.93742 | -57.57160 | 54 ft | 15 kts | 118° |
| 2026-04-26 19:08 | -37.93797 | -57.57035 | 53 ft | 17 kts | 119° |
| 2026-04-26 19:09 | -37.93856 | -57.56899 | 54 ft | 18 kts | 120° |
| 2026-04-26 19:09 | -37.93921 | -57.56756 | 51 ft | 19 kts | 120° |
| 2026-04-26 19:09 | -37.93975 | -57.56640 | 50 ft | 14 kts | 121° |
| 2026-04-26 19:09 | -37.94021 | -57.56528 | 51 ft | 14 kts | 116° |
| 2026-04-26 19:10 | -37.94024 | -57.56434 | 53 ft | 10 kts | 68° |
| 2026-04-26 19:10 | -37.94019 | -57.56422 | 53 ft | 0 kts | 62° |
| 2026-04-26 19:10 | -37.94015 | -57.56412 | 53 ft | 3 kts | 60° |
| 2026-04-26 19:11 | -37.93998 | -57.56374 | 53 ft | 6 kts | 60° |
| 2026-04-26 19:11 | -37.93971 | -57.56315 | 53 ft | 9 kts | 57° |
| 2026-04-26 19:11 | -37.93919 | -57.56345 | 52 ft | 17 kts | 305° |
| 2026-04-26 19:11 | -37.93732 | -57.56717 | 54 ft | 80 kts | 302° |
| 2026-04-26 19:12 | -37.93340 | -57.57492 | 58 ft | 127 kts | 301° |
| 2026-04-26 19:12 | -37.92854 | -57.58460 | 561 ft | 130 kts | 298° |
| 2026-04-26 19:12 | -37.92392 | -57.59434 | 1186 ft | 129 kts | 292° |
| 2026-04-26 19:12 | -37.91920 | -57.60447 | 1576 ft | 141 kts | 292° |
| 2026-04-26 19:13 | -37.91397 | -57.61574 | 1933 ft | 156 kts | 292° |
| 2026-04-26 19:13 | -37.90820 | -57.62811 | 2364 ft | 169 kts | 292° |
| 2026-04-26 19:13 | -37.90205 | -57.64110 | 2936 ft | 174 kts | 291° |
| 2026-04-26 19:13 | -37.89579 | -57.65423 | 3501 ft | 179 kts | 291° |
| 2026-04-26 19:14 | -37.88916 | -57.66807 | 4080 ft | 184 kts | 290° |
| 2026-04-26 19:14 | -37.88240 | -57.68220 | 4661 ft | 197 kts | 290° |
| 2026-04-26 19:14 | -37.87505 | -57.69765 | 5262 ft | 213 kts | 290° |
| 2026-04-26 19:14 | -37.86974 | -57.70876 | 5711 ft | 222 kts | 291° |
| 2026-04-26 19:15 | -37.85652 | -57.72991 | 6559 ft | 247 kts | 311° |
| 2026-04-26 19:15 | -37.84078 | -57.74067 | 7202 ft | 270 kts | 334° |
| 2026-04-26 19:15 | -37.82152 | -57.74323 | 7852 ft | 288 kts | 356° |
| 2026-04-26 19:15 | -37.80143 | -57.74160 | 8510 ft | 289 kts | 356° |
| 2026-04-26 19:16 | -37.78130 | -57.73999 | 9185 ft | 291 kts | 356° |
| 2026-04-26 19:16 | -37.76099 | -57.73844 | 9833 ft | 295 kts | 357° |
| 2026-04-26 19:16 | -37.74026 | -57.73691 | 10463 ft | 303 kts | 357° |
| 2026-04-26 19:16 | -37.71901 | -57.73536 | 11154 ft | 308 kts | 357° |
| 2026-04-26 19:17 | -37.69749 | -57.73380 | 11863 ft | 312 kts | 357° |
| 2026-04-26 19:17 | -37.67569 | -57.73222 | 12581 ft | 316 kts | 358° |
| 2026-04-26 19:17 | -37.65360 | -57.73061 | 13327 ft | 319 kts | 358° |
| 2026-04-26 19:17 | -37.63137 | -57.72899 | 14004 ft | 322 kts | 358° |
| 2026-04-26 19:18 | -37.60894 | -57.72738 | 14699 ft | 324 kts | 358° |
| 2026-04-26 19:18 | -37.58669 | -57.72578 | 15378 ft | 325 kts | 358° |
| 2026-04-26 19:18 | -37.56411 | -57.72412 | 16083 ft | 326 kts | 359° |
| 2026-04-26 19:18 | -37.54148 | -57.72244 | 16800 ft | 326 kts | 359° |
| 2026-04-26 19:19 | -37.51888 | -57.72079 | 17544 ft | 325 kts | 359° |
| 2026-04-26 19:19 | -37.49637 | -57.71916 | 18246 ft | 324 kts | 359° |
| 2026-04-26 19:19 | -37.47392 | -57.71755 | 18911 ft | 322 kts | 359° |
| 2026-04-26 19:19 | -37.45151 | -57.71597 | 19471 ft | 325 kts | 360° |
| 2026-04-26 19:20 | -37.42870 | -57.71429 | 19911 ft | 333 kts | 2° |
| 2026-04-26 19:20 | -37.41336 | -57.71173 | 20203 ft | 338 kts | 8° |
| 2026-04-26 19:20 | -37.38282 | -57.70069 | 20804 ft | 346 kts | 21° |
| 2026-04-26 19:20 | -37.36107 | -57.68730 | 21263 ft | 351 kts | 31° |
| 2026-04-26 19:21 | -37.34090 | -57.66977 | 21731 ft | 354 kts | 40° |
| 2026-04-26 19:21 | -37.32271 | -57.64881 | 22201 ft | 356 kts | 46° |
| 2026-04-26 19:21 | -37.30481 | -57.62713 | 22673 ft | 360 kts | 46° |
| 2026-04-26 19:21 | -37.28669 | -57.60530 | 23163 ft | 362 kts | 46° |
| 2026-04-26 19:22 | -37.26839 | -57.58332 | 23586 ft | 365 kts | 45° |
| 2026-04-26 19:22 | -37.25019 | -57.56157 | 24020 ft | 366 kts | 45° |
| 2026-04-26 19:22 | -37.23181 | -57.53966 | 24539 ft | 364 kts | 44° |
| 2026-04-26 19:22 | -37.21350 | -57.51784 | 25047 ft | 362 kts | 44° |
| 2026-04-26 19:23 | -37.19534 | -57.49619 | 25578 ft | 359 kts | 43° |
| 2026-04-26 19:23 | -37.17732 | -57.47469 | 26109 ft | 356 kts | 42° |
| 2026-04-26 19:23 | -37.15945 | -57.45337 | 26623 ft | 354 kts | 41° |
| 2026-04-26 19:23 | -37.14150 | -57.43192 | 26905 ft | 359 kts | 41° |
| 2026-04-26 19:24 | -37.12331 | -57.41021 | 27202 ft | 364 kts | 40° |
| 2026-04-26 19:24 | -37.10480 | -57.38816 | 27471 ft | 370 kts | 40° |
| 2026-04-26 19:24 | -37.06700 | -57.34315 | 28022 ft | 380 kts | 39° |
| 2026-04-26 19:25 | -37.04765 | -57.32018 | 28266 ft | 387 kts | 39° |
| 2026-04-26 19:25 | -37.03461 | -57.30474 | 28356 ft | 393 kts | 39° |
| 2026-04-26 19:25 | -37.00769 | -57.27285 | 28549 ft | 405 kts | 39° |
| 2026-04-26 19:25 | -36.98704 | -57.24837 | 28701 ft | 414 kts | 39° |
| 2026-04-26 19:26 | -36.96616 | -57.22364 | 28721 ft | 425 kts | 39° |
| 2026-04-26 19:26 | -36.94434 | -57.19781 | 28723 ft | 438 kts | 39° |
| 2026-04-26 19:26 | -36.92197 | -57.17134 | 28723 ft | 450 kts | 39° |
| 2026-04-26 19:26 | -36.89893 | -57.14409 | 28724 ft | 461 kts | 39° |
| 2026-04-26 19:27 | -36.85165 | -57.08812 | 28730 ft | 473 kts | 39° |
| 2026-04-26 19:27 | -36.80375 | -57.03152 | 28730 ft | 474 kts | 38° |
| 2026-04-26 19:28 | -36.75514 | -56.97595 | 28741 ft | 472 kts | 32° |
| 2026-04-26 19:28 | -36.69891 | -56.93683 | 28747 ft | 458 kts | 14° |
| 2026-04-26 19:29 | -36.63963 | -56.90747 | 28727 ft | 458 kts | 14° |
| 2026-04-26 19:29 | -36.58044 | -56.87787 | 28733 ft | 459 kts | 14° |
| 2026-04-26 19:30 | -36.52158 | -56.84849 | 28729 ft | 459 kts | 14° |
| 2026-04-26 19:30 | -36.47193 | -56.82384 | 28729 ft | 459 kts | 14° |
| 2026-04-26 19:31 | -36.40309 | -56.78969 | 28731 ft | 458 kts | 13° |
| 2026-04-26 19:31 | -36.34385 | -56.76033 | 28720 ft | 458 kts | 13° |
| 2026-04-26 19:32 | -36.28463 | -56.73102 | 28719 ft | 458 kts | 12° |
| 2026-04-26 19:32 | -36.22541 | -56.70171 | 28729 ft | 458 kts | 12° |
| 2026-04-26 19:33 | -36.16621 | -56.67249 | 28731 ft | 458 kts | 11° |
| 2026-04-26 19:33 | -36.10702 | -56.64342 | 28737 ft | 458 kts | 11° |
| 2026-04-26 19:34 | -36.04783 | -56.61439 | 28740 ft | 457 kts | 11° |
| 2026-04-26 19:34 | -35.98911 | -56.58561 | 28745 ft | 457 kts | 10° |
| 2026-04-26 19:35 | -35.93006 | -56.55663 | 28751 ft | 457 kts | 10° |
| 2026-04-26 19:35 | -35.87092 | -56.52767 | 28760 ft | 457 kts | 9° |
| 2026-04-26 19:36 | -35.82182 | -56.50370 | 28764 ft | 456 kts | 9° |
| 2026-04-26 19:36 | -35.75287 | -56.47009 | 28765 ft | 456 kts | 8° |
| 2026-04-26 19:37 | -35.69396 | -56.44142 | 28610 ft | 456 kts | 8° |
| 2026-04-26 19:37 | -35.66454 | -56.42708 | 28274 ft | 455 kts | 8° |
| 2026-04-26 19:37 | -35.63521 | -56.41278 | 27998 ft | 450 kts | 8° |
| 2026-04-26 19:38 | -35.60601 | -56.39859 | 27644 ft | 452 kts | 7° |
| 2026-04-26 19:38 | -35.57684 | -56.38449 | 27153 ft | 450 kts | 7° |
| 2026-04-26 19:38 | -35.54818 | -56.37063 | 26662 ft | 447 kts | 7° |
| 2026-04-26 19:38 | -35.51935 | -56.35668 | 26176 ft | 444 kts | 7° |
| 2026-04-26 19:39 | -35.49083 | -56.34286 | 25678 ft | 439 kts | 7° |
| 2026-04-26 19:39 | -35.46260 | -56.32913 | 25179 ft | 434 kts | 6° |
| 2026-04-26 19:39 | -35.43471 | -56.31556 | 24692 ft | 429 kts | 6° |
| 2026-04-26 19:39 | -35.40705 | -56.30216 | 24207 ft | 425 kts | 5° |
| 2026-04-26 19:40 | -35.37963 | -56.28894 | 23744 ft | 422 kts | 5° |
| 2026-04-26 19:40 | -35.35243 | -56.27530 | 23252 ft | 428 kts | 10° |
| 2026-04-26 19:40 | -35.32644 | -56.25572 | 22685 ft | 452 kts | 25° |
| 2026-04-26 19:40 | -35.30419 | -56.22710 | 22132 ft | 478 kts | 45° |
| 2026-04-26 19:41 | -35.28891 | -56.19025 | 21597 ft | 493 kts | 63° |
| 2026-04-26 19:41 | -35.27742 | -56.15084 | 21072 ft | 491 kts | 65° |
| 2026-04-26 19:41 | -35.26624 | -56.11139 | 20546 ft | 488 kts | 65° |
| 2026-04-26 19:41 | -35.26253 | -56.09817 | 20380 ft | 487 kts | 65° |
| 2026-04-26 19:42 | -35.24429 | -56.03334 | 19550 ft | 481 kts | 65° |
| 2026-04-26 19:42 | -35.23333 | -55.99492 | 19060 ft | 477 kts | 65° |
| 2026-04-26 19:42 | -35.22231 | -55.95670 | 18572 ft | 473 kts | 65° |
| 2026-04-26 19:42 | -35.21138 | -55.91899 | 18103 ft | 469 kts | 65° |
| 2026-04-26 19:43 | -35.20068 | -55.88208 | 17556 ft | 464 kts | 65° |
| 2026-04-26 19:43 | -35.18993 | -55.84507 | 17010 ft | 460 kts | 65° |
| 2026-04-26 19:43 | -35.17927 | -55.80845 | 16483 ft | 455 kts | 65° |
| 2026-04-26 19:43 | -35.16870 | -55.77219 | 15946 ft | 450 kts | 66° |
| 2026-04-26 19:44 | -35.15828 | -55.73645 | 15426 ft | 445 kts | 66° |
| 2026-04-26 19:44 | -35.14795 | -55.70108 | 14923 ft | 439 kts | 66° |
| 2026-04-26 19:44 | -35.13776 | -55.66616 | 14424 ft | 433 kts | 66° |
| 2026-04-26 19:44 | -35.12769 | -55.63174 | 13936 ft | 427 kts | 66° |
| 2026-04-26 19:45 | -35.11777 | -55.59791 | 13421 ft | 421 kts | 66° |
| 2026-04-26 19:45 | -35.11126 | -55.57568 | 13068 ft | 417 kts | 66° |
| 2026-04-26 19:45 | -35.09993 | -55.53689 | 12435 ft | 410 kts | 66° |
| 2026-04-26 19:45 | -35.09040 | -55.50433 | 11906 ft | 405 kts | 66° |
| 2026-04-26 19:46 | -35.08097 | -55.47217 | 11396 ft | 400 kts | 66° |
| 2026-04-26 19:46 | -35.07160 | -55.44035 | 10876 ft | 396 kts | 66° |
| 2026-04-26 19:46 | -35.06232 | -55.40889 | 10371 ft | 392 kts | 66° |
| 2026-04-26 19:46 | -35.05310 | -55.37779 | 9866 ft | 388 kts | 66° |
| 2026-04-26 19:47 | -35.04396 | -55.34694 | 9357 ft | 385 kts | 66° |
| 2026-04-26 19:47 | -35.04103 | -55.33702 | 9184 ft | 384 kts | 66° |
| 2026-04-26 19:47 | -35.02607 | -55.28643 | 8301 ft | 379 kts | 66° |
| 2026-04-26 19:47 | -35.01714 | -55.25622 | 7781 ft | 377 kts | 66° |
| 2026-04-26 19:48 | -35.00826 | -55.22624 | 7270 ft | 375 kts | 66° |
| 2026-04-26 19:48 | -34.99941 | -55.19648 | 6767 ft | 372 kts | 66° |
| 2026-04-26 19:48 | -34.99057 | -55.16686 | 6256 ft | 370 kts | 66° |
| 2026-04-26 19:48 | -34.98180 | -55.13746 | 5756 ft | 368 kts | 66° |
| 2026-04-26 19:49 | -34.97308 | -55.10818 | 5239 ft | 367 kts | 67° |
| 2026-04-26 19:49 | -34.96439 | -55.07899 | 4723 ft | 365 kts | 67° |
| 2026-04-26 19:49 | -34.95574 | -55.04995 | 4210 ft | 364 kts | 67° |
| 2026-04-26 19:49 | -34.94711 | -55.02096 | 3775 ft | 361 kts | 67° |
| 2026-04-26 19:50 | -34.93865 | -54.99257 | 3481 ft | 352 kts | 67° |
| 2026-04-26 19:50 | -34.93040 | -54.96493 | 3274 ft | 342 kts | 66° |
| 2026-04-26 19:50 | -34.92236 | -54.93807 | 3090 ft | 332 kts | 67° |
| 2026-04-26 19:50 | -34.91460 | -54.91211 | 2988 ft | 319 kts | 66° |
| 2026-04-26 19:51 | -34.90433 | -54.88943 | 3000 ft | 293 kts | 41° |
| 2026-04-26 19:51 | -34.88891 | -54.87609 | 2999 ft | 263 kts | 12° |
| 2026-04-26 19:51 | -34.87209 | -54.87233 | 2995 ft | 233 kts | 347° |
| 2026-04-26 19:51 | -34.85717 | -54.87604 | 2996 ft | 210 kts | 332° |
| 2026-04-26 19:52 | -34.84368 | -54.88129 | 2996 ft | 197 kts | 332° |
| 2026-04-26 19:52 | -34.83103 | -54.88614 | 2993 ft | 184 kts | 331° |
| 2026-04-26 19:52 | -34.81933 | -54.89111 | 2990 ft | 170 kts | 319° |
| 2026-04-26 19:52 | -34.81139 | -54.90042 | 2999 ft | 154 kts | 292° |
| 2026-04-26 19:53 | -34.80855 | -54.91253 | 2974 ft | 150 kts | 270° |
| 2026-04-26 19:53 | -34.81069 | -54.92490 | 2776 ft | 150 kts | 255° |
| 2026-04-26 19:53 | -34.81283 | -54.93287 | 2645 ft | 149 kts | 256° |
| 2026-04-26 19:53 | -34.81599 | -54.94482 | 2461 ft | 147 kts | 256° |
| 2026-04-26 19:54 | -34.81905 | -54.95649 | 2280 ft | 143 kts | 256° |
| 2026-04-26 19:54 | -34.82207 | -54.96795 | 2104 ft | 140 kts | 256° |
| 2026-04-26 19:54 | -34.82503 | -54.97913 | 1929 ft | 138 kts | 256° |
| 2026-04-26 19:54 | -34.82797 | -54.99028 | 1765 ft | 137 kts | 256° |
| 2026-04-26 19:55 | -34.83089 | -55.00133 | 1574 ft | 137 kts | 255° |
| 2026-04-26 19:55 | -34.83380 | -55.01237 | 1400 ft | 137 kts | 256° |
| 2026-04-26 19:55 | -34.83667 | -55.02327 | 1237 ft | 133 kts | 256° |
| 2026-04-26 19:55 | -34.84037 | -55.03736 | 1000 ft | 133 kts | 256° |
| 2026-04-26 19:56 | -34.84227 | -55.04458 | 856 ft | 132 kts | 255° |
| 2026-04-26 19:56 | -34.84518 | -55.05531 | 662 ft | 133 kts | 256° |
| 2026-04-26 19:56 | -34.84800 | -55.06606 | 481 ft | 132 kts | 257° |
| 2026-04-26 19:56 | -34.85052 | -55.07671 | 338 ft | 131 kts | 256° |
| 2026-04-26 19:57 | -34.85332 | -55.08720 | 188 ft | 132 kts | 256° |
| 2026-04-26 19:57 | -34.85604 | -55.09753 | 105 ft | 114 kts | 255° |
| 2026-04-26 19:57 | -34.85772 | -55.10392 | 101 ft | 38 kts | 252° |
| 2026-04-26 19:57 | -34.85845 | -55.10687 | 101 ft | 38 kts | 253° |
| 2026-04-26 19:58 | -34.85889 | -55.10802 | 101 ft | 6 kts | 119° |
| 2026-04-26 19:58 | -34.85853 | -55.10686 | 100 ft | 20 kts | 71° |
| 2026-04-26 19:58 | -34.85805 | -55.10500 | 101 ft | 25 kts | 72° |
| 2026-04-26 19:58 | -34.85749 | -55.10294 | 99 ft | 27 kts | 72° |
| 2026-04-26 19:59 | -34.85692 | -55.10074 | 101 ft | 27 kts | 72° |
| 2026-04-26 19:59 | -34.85695 | -55.09902 | 101 ft | 19 kts | 150° |
| 2026-04-26 19:59 | -34.85800 | -55.09860 | 100 ft | 13 kts | 161° |
| 2026-04-26 19:59 | -34.85882 | -55.09840 | 100 ft | 11 kts | 205° |
| 2026-04-26 20:00 | -34.85909 | -55.09902 | 100 ft | 7 kts | 243° |
| 2026-04-26 20:00 | -34.85948 | -55.09902 | 100 ft | 5 kts | 160° |
| 2026-04-26 20:00 | -34.85964 | -55.09896 | 100 ft | 0 kts | 163° |
| 2026-04-26 20:01 | -34.85964 | -55.09897 | 100 ft | 0 kts | 163° |
| 2026-04-26 20:02 | -34.85963 | -55.09897 | 101 ft | 0 kts | 163° |